createdAt,value
2019-02-12T00:00:50.121Z,1.80
2019-02-12T00:03:19.066Z,1.80
2019-02-12T00:05:48.186Z,1.80
2019-02-12T00:08:17.106Z,1.80
2019-02-12T00:10:46.048Z,1.80
2019-02-12T00:13:14.925Z,1.80
2019-02-12T00:15:43.954Z,1.80
2019-02-12T00:18:12.887Z,1.80
2019-02-12T00:20:41.719Z,1.80
2019-02-12T00:23:10.706Z,1.80
2019-02-12T00:25:39.633Z,1.80
2019-02-12T00:28:08.565Z,1.80
2019-02-12T00:30:37.416Z,1.80
2019-02-12T00:33:06.352Z,1.70
2019-02-12T00:35:35.253Z,1.70
2019-02-12T00:38:04.468Z,1.80
2019-02-12T00:40:33.386Z,1.70
2019-02-12T00:43:02.239Z,1.70
2019-02-12T00:45:31.189Z,1.70
2019-02-12T00:48:00.085Z,1.70
2019-02-12T00:50:29.058Z,1.70
2019-02-12T00:52:58.022Z,1.70
2019-02-12T00:55:26.881Z,1.70
2019-02-12T00:57:55.909Z,1.70
2019-02-12T01:00:24.868Z,1.70
2019-02-12T01:02:53.763Z,1.70
2019-02-12T01:05:22.761Z,1.70
2019-02-12T01:07:51.846Z,1.70
2019-02-12T01:10:20.756Z,1.60
2019-02-12T01:12:49.707Z,1.70
2019-02-12T01:15:18.646Z,1.60
2019-02-12T01:17:47.543Z,1.60
2019-02-12T01:20:16.363Z,1.60
2019-02-12T01:22:45.332Z,1.60
2019-02-12T01:25:14.198Z,1.60
2019-02-12T01:27:43.045Z,1.60
2019-02-12T01:30:16.637Z,1.60
2019-02-12T01:32:45.410Z,1.60
2019-02-12T01:35:14.320Z,1.60
2019-02-12T01:37:43.238Z,1.60
2019-02-12T01:40:13.559Z,1.60
2019-02-12T01:42:42.659Z,1.60
2019-02-12T01:45:12.801Z,1.60
2019-02-12T01:47:41.665Z,1.60
2019-02-12T01:50:12.517Z,1.60
2019-02-12T01:52:41.501Z,1.60
2019-02-12T01:55:10.575Z,1.60
2019-02-12T01:57:39.695Z,1.50
2019-02-12T02:00:11.222Z,1.60
2019-02-12T02:02:40.155Z,1.60
2019-02-12T02:05:09.538Z,1.60
2019-02-12T02:07:38.809Z,1.50
2019-02-12T02:10:09.478Z,1.50
2019-02-12T02:12:38.584Z,1.60
2019-02-12T02:15:09.333Z,1.50
2019-02-12T02:17:38.238Z,1.50
2019-02-12T02:20:07.926Z,1.50
2019-02-12T02:22:36.796Z,1.50
2019-02-12T02:25:06.438Z,1.60
2019-02-12T02:27:35.348Z,1.50
2019-02-12T02:30:04.876Z,1.50
2019-02-12T02:32:33.802Z,1.50
2019-02-12T02:35:02.679Z,1.50
2019-02-12T02:37:31.590Z,1.50
2019-02-12T02:40:00.774Z,1.50
2019-02-12T02:42:29.636Z,1.50
2019-02-12T02:44:58.476Z,1.50
2019-02-12T02:47:27.605Z,1.50
2019-02-12T02:49:56.621Z,1.50
2019-02-12T02:52:25.452Z,1.50
2019-02-12T02:54:54.453Z,1.50
2019-02-12T02:57:23.333Z,1.40
2019-02-12T02:59:52.445Z,1.50
2019-02-12T03:02:21.640Z,1.50
2019-02-12T03:04:50.665Z,1.50
2019-02-12T03:07:19.742Z,1.50
2019-02-12T03:09:48.694Z,1.40
2019-02-12T03:12:17.663Z,1.40
2019-02-12T03:14:46.478Z,1.50
2019-02-12T03:17:15.390Z,1.40
2019-02-12T03:19:44.257Z,1.40
2019-02-12T03:22:13.149Z,1.50
2019-02-12T03:24:42.010Z,1.40
2019-02-12T03:27:10.999Z,1.40
2019-02-12T03:29:39.898Z,1.50
2019-02-12T03:32:08.971Z,1.50
2019-02-12T03:34:37.865Z,1.50
2019-02-12T03:37:07.035Z,1.50
2019-02-12T03:39:35.955Z,1.50
2019-02-12T03:42:05.334Z,1.50
2019-02-12T03:44:34.246Z,1.50
2019-02-12T03:47:03.316Z,1.50
2019-02-12T03:49:32.374Z,1.50
2019-02-12T03:52:01.321Z,1.60
2019-02-12T03:54:30.319Z,1.60
2019-02-12T03:56:59.267Z,1.60
2019-02-12T03:59:28.311Z,1.60
2019-02-12T04:01:57.756Z,1.60
2019-02-12T04:04:26.815Z,1.60
2019-02-12T04:06:55.726Z,1.60
2019-02-12T04:09:24.557Z,1.60
2019-02-12T04:11:53.526Z,1.70
2019-02-12T04:14:22.463Z,1.70
2019-02-12T04:16:51.596Z,1.70
2019-02-12T04:19:20.416Z,1.70
2019-02-12T04:21:49.346Z,1.70
2019-02-12T04:24:18.389Z,1.70
2019-02-12T04:26:47.442Z,1.80
2019-02-12T04:29:16.386Z,1.80
2019-02-12T04:31:45.252Z,1.80
2019-02-12T04:34:14.134Z,1.80
2019-02-12T04:36:43.165Z,1.80
2019-02-12T04:39:12.013Z,1.90
2019-02-12T04:41:40.973Z,1.80
2019-02-12T04:44:09.911Z,1.80
2019-02-12T04:46:41.287Z,1.90
2019-02-12T04:49:10.251Z,1.90
2019-02-12T04:51:39.344Z,1.90
2019-02-12T04:54:08.233Z,1.90
2019-02-12T04:56:56.274Z,1.90
2019-02-12T04:59:25.366Z,1.90
2019-02-12T05:01:54.333Z,1.90
2019-02-12T05:04:23.308Z,1.90
2019-02-12T05:06:52.330Z,2.00
2019-02-12T05:09:22.288Z,2.00
2019-02-12T05:11:54.047Z,2.00
2019-02-12T05:14:23.312Z,2.00
2019-02-12T05:16:52.238Z,2.00
2019-02-12T05:19:21.126Z,2.00
2019-02-12T05:21:50.175Z,2.00
2019-02-12T05:24:19.073Z,2.00
2019-02-12T05:26:48.019Z,2.00
2019-02-12T05:29:18.453Z,2.10
2019-02-12T05:31:47.382Z,2.00
2019-02-12T05:34:16.282Z,2.10
2019-02-12T05:36:45.370Z,2.10
2019-02-12T05:39:14.180Z,2.10
2019-02-12T05:41:43.182Z,2.10
2019-02-12T05:44:12.071Z,2.10
2019-02-12T05:46:41.004Z,2.10
2019-02-12T05:49:09.862Z,2.20
2019-02-12T05:51:38.825Z,2.20
2019-02-12T05:54:07.930Z,2.20
2019-02-12T05:56:36.866Z,2.20
2019-02-12T05:59:05.819Z,2.20
2019-02-12T06:01:34.772Z,2.20
2019-02-12T06:04:03.730Z,2.30
2019-02-12T06:06:32.571Z,2.30
2019-02-12T06:09:01.407Z,2.30
2019-02-12T06:11:30.286Z,2.30
2019-02-12T06:13:59.147Z,2.30
2019-02-12T06:16:28.006Z,2.30
2019-02-12T06:18:57.114Z,2.30
2019-02-12T06:21:26.021Z,2.30
2019-02-12T06:23:54.896Z,2.30
2019-02-12T06:26:23.818Z,2.40
2019-02-12T06:28:52.689Z,2.30
2019-02-12T06:31:21.566Z,2.30
2019-02-12T06:33:50.369Z,2.30
2019-02-12T06:36:19.254Z,2.40
2019-02-12T06:38:48.065Z,2.40
2019-02-12T06:41:16.874Z,2.40
2019-02-12T06:43:45.700Z,2.40
2019-02-12T06:46:14.545Z,2.40
2019-02-12T06:48:43.376Z,2.40
2019-02-12T06:51:12.174Z,2.40
2019-02-12T06:53:41.101Z,2.40
2019-02-12T06:56:09.998Z,2.40
2019-02-12T06:58:38.846Z,2.40
2019-02-12T07:01:07.674Z,2.40
2019-02-12T07:04:20.938Z,2.40
2019-02-12T07:07:16.849Z,2.40
2019-02-12T07:09:57.612Z,2.50
2019-02-12T07:13:18.818Z,2.50
2019-02-12T07:16:38.275Z,2.50
2019-02-12T07:19:41.178Z,2.50
2019-02-12T07:23:01.364Z,2.60
2019-02-12T07:25:50.115Z,2.60
2019-02-12T07:29:15.196Z,2.60
2019-02-12T07:32:19.848Z,2.60
2019-02-12T07:35:26.186Z,2.70
2019-02-12T07:38:20.336Z,2.70
2019-02-12T07:41:20.438Z,2.70
2019-02-12T07:44:13.536Z,2.70
2019-02-12T07:47:26.002Z,2.80
2019-02-12T07:50:30.723Z,2.80
2019-02-12T07:53:46.884Z,2.90
2019-02-12T07:56:47.899Z,2.90
2019-02-12T07:59:38.686Z,2.90
2019-02-12T08:02:41.100Z,3.00
2019-02-12T08:05:56.235Z,3.00
2019-02-12T08:09:05.506Z,3.00
2019-02-12T08:11:49.954Z,3.00
2019-02-12T08:15:02.266Z,3.10
2019-02-12T08:18:27.457Z,3.10
2019-02-12T08:21:06.570Z,3.10
2019-02-12T08:24:01.691Z,3.20
2019-02-12T08:27:33.376Z,3.20
2019-02-12T08:30:46.329Z,3.20
2019-02-12T08:33:56.014Z,3.30
2019-02-12T08:37:00.157Z,3.30
2019-02-12T08:39:44.267Z,3.40
2019-02-12T08:42:25.666Z,3.40
2019-02-12T08:45:38.943Z,3.40
2019-02-12T08:48:45.654Z,3.40
2019-02-12T08:52:23.223Z,3.50
2019-02-12T08:55:36.805Z,3.50
2019-02-12T08:58:45.929Z,3.50
2019-02-12T09:01:28.419Z,3.60
2019-02-12T09:04:38.181Z,3.60
2019-02-12T09:07:24.936Z,3.60
2019-02-12T09:10:44.578Z,3.70
2019-02-12T09:13:57.955Z,3.70
2019-02-12T09:17:17.512Z,3.80
2019-02-12T09:20:29.755Z,3.80
2019-02-12T09:23:34.473Z,3.90
2019-02-12T09:26:56.488Z,3.90
2019-02-12T09:29:49.482Z,4.00
2019-02-12T09:32:46.698Z,4.00
2019-02-12T09:35:34.725Z,4.10
2019-02-12T09:38:30.814Z,4.10
2019-02-12T09:41:22.607Z,4.20
2019-02-12T09:44:44.789Z,4.20
2019-02-12T09:47:51.295Z,4.30
2019-02-12T09:50:56.358Z,4.30
2019-02-12T09:53:55.873Z,4.40
2019-02-12T09:57:08.352Z,4.40
2019-02-12T10:00:51.786Z,4.50
2019-02-12T10:04:35.427Z,4.50
2019-02-12T10:07:16.391Z,4.60
2019-02-12T10:10:25.355Z,4.70
2019-02-12T10:13:20.461Z,4.70
2019-02-12T10:16:34.642Z,4.80
2019-02-12T10:19:21.300Z,4.80
2019-02-12T10:22:52.663Z,4.90
2019-02-12T10:25:46.631Z,4.90
2019-02-12T10:29:04.490Z,5.00
2019-02-12T10:31:42.133Z,5.10
2019-02-12T10:34:11.496Z,5.20
2019-02-12T10:36:40.449Z,5.30
2019-02-12T10:39:11.125Z,5.40
2019-02-12T10:41:40.038Z,5.40
2019-02-12T10:44:08.957Z,5.50
2019-02-12T10:46:37.868Z,5.50
2019-02-12T10:49:06.842Z,5.60
2019-02-12T10:51:35.817Z,5.60
2019-02-12T10:54:04.986Z,5.70
2019-02-12T10:56:33.822Z,5.80
2019-02-12T10:59:02.882Z,5.90
2019-02-12T11:01:31.861Z,6.00
2019-02-12T11:04:00.767Z,6.10
2019-02-12T11:06:29.981Z,6.10
2019-02-12T11:08:58.955Z,6.20
2019-02-12T11:11:27.946Z,6.30
2019-02-12T11:13:56.818Z,6.40
2019-02-12T11:16:25.742Z,6.50
2019-02-12T11:18:54.606Z,6.60
2019-02-12T11:21:23.497Z,6.70
2019-02-12T11:23:52.394Z,6.80
2019-02-12T11:26:21.282Z,6.90
2019-02-12T11:28:50.117Z,6.90
2019-02-12T11:31:18.930Z,7.00
2019-02-12T11:33:48.155Z,7.10
2019-02-12T11:36:17.089Z,7.20
2019-02-12T11:38:46.035Z,7.30
2019-02-12T11:41:14.957Z,7.40
2019-02-12T11:43:43.936Z,7.50
2019-02-12T11:46:12.781Z,7.60
2019-02-12T11:48:41.625Z,7.60
2019-02-12T11:51:10.483Z,7.70
2019-02-12T11:53:39.622Z,7.80
2019-02-12T11:56:08.433Z,7.90
2019-02-12T11:58:37.243Z,7.90
2019-02-12T12:01:08.646Z,8.00
2019-02-12T12:03:37.638Z,8.00
2019-02-12T12:06:09.571Z,8.10
2019-02-12T12:08:38.478Z,8.10
2019-02-12T12:11:07.289Z,8.20
2019-02-12T12:13:36.184Z,8.20
2019-02-12T12:16:05.348Z,8.30
2019-02-12T12:18:34.232Z,8.40
2019-02-12T12:21:03.225Z,8.40
2019-02-12T12:23:32.113Z,8.50
2019-02-12T12:26:00.919Z,8.60
2019-02-12T12:28:29.857Z,8.60
2019-02-12T12:30:58.844Z,8.70
2019-02-12T12:33:27.819Z,8.70
2019-02-12T12:35:56.711Z,8.80
2019-02-12T12:38:25.534Z,8.90
2019-02-12T12:40:54.363Z,8.90
2019-02-12T12:43:23.271Z,9.00
2019-02-12T12:45:52.156Z,9.00
2019-02-12T12:48:20.957Z,9.10
2019-02-12T12:50:49.989Z,9.10
2019-02-12T12:53:18.853Z,9.10
2019-02-12T12:55:47.715Z,9.20
2019-02-12T12:58:16.551Z,9.20
2019-02-12T13:00:45.438Z,9.30
2019-02-12T13:03:14.316Z,9.30
2019-02-12T13:05:43.156Z,9.40
2019-02-12T13:08:11.978Z,9.50
2019-02-12T13:10:40.894Z,9.50
2019-02-12T13:13:09.798Z,9.50
2019-02-12T13:15:38.722Z,9.60
2019-02-12T13:18:07.593Z,9.60
2019-02-12T13:20:36.546Z,9.70
2019-02-12T13:23:05.891Z,9.70
2019-02-12T13:25:34.894Z,9.70
2019-02-12T13:28:03.786Z,9.70
2019-02-12T13:30:32.707Z,9.70
2019-02-12T13:33:01.517Z,9.70
2019-02-12T13:35:30.505Z,9.70
2019-02-12T13:37:59.409Z,9.70
2019-02-12T13:40:28.438Z,9.70
2019-02-12T13:42:57.263Z,9.70
2019-02-12T13:45:26.221Z,9.70
2019-02-12T13:47:55.058Z,9.70
2019-02-12T13:50:24.120Z,9.70
2019-02-12T13:52:52.996Z,9.70
2019-02-12T13:55:22.709Z,9.70
2019-02-12T13:57:51.737Z,9.70
2019-02-12T14:00:20.819Z,9.70
2019-02-12T14:02:49.755Z,9.70
2019-02-12T14:05:18.668Z,9.70
2019-02-12T14:07:47.533Z,9.70
2019-02-12T14:10:16.364Z,9.80
2019-02-12T14:12:45.342Z,9.70
2019-02-12T14:15:14.342Z,9.70
2019-02-12T14:17:43.211Z,9.70
2019-02-12T14:20:13.318Z,9.70
2019-02-12T14:22:42.225Z,9.70
2019-02-12T14:25:11.531Z,9.70
2019-02-12T14:27:40.434Z,9.70
2019-02-12T14:30:11.384Z,9.70
2019-02-12T14:32:40.419Z,9.80
2019-02-12T14:35:09.990Z,9.70
2019-02-12T14:37:38.977Z,9.70
2019-02-12T14:40:09.185Z,9.70
2019-02-12T14:42:37.997Z,9.70
2019-02-12T14:45:08.420Z,9.70
2019-02-12T14:47:37.309Z,9.70
2019-02-12T14:50:07.029Z,9.70
2019-02-12T14:52:35.869Z,9.60
2019-02-12T14:55:04.962Z,9.70
2019-02-12T14:57:33.793Z,9.60
2019-02-12T15:00:02.852Z,9.60
2019-02-12T15:02:31.754Z,9.60
2019-02-12T15:05:00.988Z,9.60
2019-02-12T15:07:30.114Z,9.60
2019-02-12T15:09:58.946Z,9.50
2019-02-12T15:12:27.861Z,9.50
2019-02-12T15:14:56.813Z,9.50
2019-02-12T15:17:25.618Z,9.40
2019-02-12T15:19:54.524Z,9.40
2019-02-12T15:22:23.419Z,9.40
2019-02-12T15:24:52.373Z,9.40
2019-02-12T15:27:21.356Z,9.40
2019-02-12T15:29:50.351Z,9.30
2019-02-12T15:32:19.184Z,9.30
2019-02-12T15:34:47.994Z,9.30
2019-02-12T15:37:17.683Z,9.20
2019-02-12T15:39:46.658Z,9.20
2019-02-12T15:42:15.583Z,9.20
2019-02-12T15:44:44.489Z,9.20
2019-02-12T15:47:13.571Z,9.20
2019-02-12T15:49:42.529Z,9.20
2019-02-12T15:52:11.421Z,9.10
2019-02-12T15:54:40.293Z,9.10
2019-02-12T15:57:09.097Z,9.10
2019-02-12T15:59:37.911Z,9.00
2019-02-12T16:02:06.939Z,9.00
2019-02-12T16:04:46.294Z,9.00
2019-02-12T16:07:09.206Z,9.00
2019-02-12T16:09:38.026Z,8.90
2019-02-12T16:12:06.868Z,8.90
2019-02-12T16:14:35.681Z,8.80
2019-02-12T16:17:04.767Z,8.80
2019-02-12T16:19:33.581Z,8.70
2019-02-12T16:22:02.496Z,8.70
2019-02-12T16:24:31.298Z,8.70
2019-02-12T16:27:00.221Z,8.70
2019-02-12T16:29:29.104Z,8.60
2019-02-12T16:31:57.990Z,8.60
2019-02-12T16:34:26.894Z,8.50
2019-02-12T16:36:55.722Z,8.50
2019-02-12T16:39:24.595Z,8.50
2019-02-12T16:41:53.482Z,8.40
2019-02-12T16:44:22.322Z,8.40
2019-02-12T16:46:53.764Z,8.30
2019-02-12T16:49:22.960Z,8.30
2019-02-12T16:51:51.884Z,8.20
2019-02-12T16:54:21.058Z,8.10
2019-02-12T16:56:49.953Z,8.10
2019-02-12T16:59:18.775Z,8.10
2019-02-12T17:01:47.686Z,8.00
2019-02-12T17:04:16.750Z,8.00
2019-02-12T17:06:45.562Z,7.90
2019-02-12T17:09:14.503Z,7.90
2019-02-12T17:11:43.511Z,7.90
2019-02-12T17:14:12.533Z,7.80
2019-02-12T17:16:41.598Z,7.80
2019-02-12T17:19:10.459Z,7.80
2019-02-12T17:21:39.463Z,7.80
2019-02-12T17:24:08.384Z,7.70
2019-02-12T17:26:37.178Z,7.70
2019-02-12T17:29:06.011Z,7.70
2019-02-12T17:31:35.015Z,7.70
2019-02-12T17:34:03.982Z,7.60
2019-02-12T17:36:32.822Z,7.60
2019-02-12T17:39:01.642Z,7.60
2019-02-12T17:41:30.554Z,7.60
2019-02-12T17:43:59.457Z,7.50
2019-02-12T17:46:28.321Z,7.50
2019-02-12T17:48:57.242Z,7.50
2019-02-12T17:51:26.137Z,7.40
2019-02-12T17:53:56.003Z,7.40
2019-02-12T17:56:25.270Z,7.40
2019-02-12T17:58:54.270Z,7.40
2019-02-12T18:01:23.167Z,7.30
2019-02-12T18:03:52.021Z,7.30
2019-02-12T18:06:20.914Z,7.30
2019-02-12T18:08:49.840Z,7.30
2019-02-12T18:11:18.638Z,7.30
2019-02-12T18:13:47.578Z,7.20
2019-02-12T18:16:16.587Z,7.20
2019-02-12T18:18:45.511Z,7.20
2019-02-12T18:21:14.527Z,7.20
2019-02-12T18:23:43.416Z,7.10
2019-02-12T18:26:15.557Z,7.10
2019-02-12T18:28:44.471Z,7.10
2019-02-12T18:31:13.505Z,7.10
2019-02-12T18:33:42.431Z,7.10
2019-02-12T18:36:11.283Z,7.00
2019-02-12T18:38:40.234Z,7.00
2019-02-12T18:41:09.108Z,7.00
2019-02-12T18:43:37.976Z,7.00
2019-02-12T18:46:06.926Z,7.00
2019-02-12T18:48:36.134Z,6.90
2019-02-12T18:51:05.221Z,6.90
2019-02-12T18:53:34.044Z,6.90
2019-02-12T18:56:02.859Z,6.90
2019-02-12T18:58:31.674Z,6.80
2019-02-12T19:01:00.478Z,6.80
2019-02-12T19:03:29.331Z,6.80
2019-02-12T19:05:58.150Z,6.80
2019-02-12T19:08:26.952Z,6.80
2019-02-12T19:10:55.909Z,6.70
2019-02-12T19:13:24.822Z,6.70
2019-02-12T19:15:53.778Z,6.70
2019-02-12T19:18:25.137Z,6.70
2019-02-12T19:20:53.997Z,6.70
2019-02-12T19:23:22.970Z,6.60
2019-02-12T19:25:51.821Z,6.60
2019-02-12T19:28:20.778Z,6.60
2019-02-12T19:30:49.580Z,6.60
2019-02-12T19:33:18.509Z,6.60
2019-02-12T19:35:47.326Z,6.50
2019-02-12T19:38:16.175Z,6.50
2019-02-12T19:40:45.076Z,6.50
2019-02-12T19:43:15.487Z,6.50
2019-02-12T19:45:44.808Z,6.40
2019-02-12T19:48:13.862Z,6.50
2019-02-12T19:50:42.775Z,6.50
2019-02-12T19:53:11.674Z,6.40
2019-02-12T19:55:40.507Z,6.40
2019-02-12T19:58:09.402Z,6.40
2019-02-12T20:00:38.478Z,6.40
2019-02-12T20:03:07.497Z,6.40
2019-02-12T20:05:36.370Z,6.40
2019-02-12T20:08:05.379Z,6.40
2019-02-12T20:10:34.205Z,6.40
2019-02-12T20:13:03.086Z,6.30
2019-02-12T20:15:32.044Z,6.30
2019-02-12T20:18:00.995Z,6.40
2019-02-12T20:20:29.890Z,6.40
2019-02-12T20:22:58.839Z,6.30
2019-02-12T20:25:27.701Z,6.30
2019-02-12T20:27:56.590Z,6.30
2019-02-12T20:30:25.394Z,6.30
2019-02-12T20:32:54.245Z,6.30
2019-02-12T20:35:23.168Z,6.30
2019-02-12T20:37:51.991Z,6.30
2019-02-12T20:40:20.829Z,6.30
2019-02-12T20:42:49.812Z,6.30
2019-02-12T20:45:18.725Z,6.20
2019-02-12T20:47:47.825Z,6.20
2019-02-12T20:50:16.737Z,6.20
2019-02-12T20:52:45.686Z,6.20
2019-02-12T20:55:14.984Z,6.20
2019-02-12T20:57:43.961Z,6.20
2019-02-12T21:00:14.920Z,6.20
2019-02-12T21:02:43.753Z,6.10
2019-02-12T21:05:13.598Z,6.20
2019-02-12T21:07:42.722Z,6.20
2019-02-12T21:10:13.523Z,6.10
2019-02-12T21:12:42.418Z,6.10
2019-02-12T21:15:13.982Z,6.10
2019-02-12T21:17:42.997Z,6.00
2019-02-12T21:20:11.906Z,6.00
2019-02-12T21:22:40.977Z,6.00
2019-02-12T21:25:10.360Z,6.00
2019-02-12T21:27:39.331Z,6.00
2019-02-12T21:30:10.960Z,6.00
2019-02-12T21:32:39.970Z,6.00
2019-02-12T21:35:09.407Z,5.90
2019-02-12T21:37:38.589Z,5.90
2019-02-12T21:40:13.103Z,5.90
2019-02-12T21:42:41.939Z,5.90
2019-02-12T21:45:12.689Z,5.90
2019-02-12T21:47:41.671Z,5.80
2019-02-12T21:50:10.671Z,5.80
2019-02-12T21:52:39.522Z,5.80
2019-02-12T21:55:09.172Z,5.80
2019-02-12T21:57:37.996Z,5.80
2019-02-12T22:00:09.223Z,5.80
2019-02-12T22:02:38.134Z,5.80
2019-02-12T22:05:09.046Z,5.70
2019-02-12T22:07:38.118Z,5.70
2019-02-12T22:10:09.750Z,5.70
2019-02-12T22:12:38.637Z,5.70
2019-02-12T22:15:10.697Z,5.70
2019-02-12T22:17:40.024Z,5.70
2019-02-12T22:20:10.366Z,5.70
2019-02-12T22:22:39.402Z,5.70
2019-02-12T22:25:08.577Z,5.70
2019-02-12T22:27:40.411Z,5.70
2019-02-12T22:30:11.875Z,5.70
2019-02-12T22:32:40.811Z,5.70
2019-02-12T22:35:09.928Z,5.70
2019-02-12T22:37:38.994Z,5.70
2019-02-12T22:40:08.441Z,5.70
2019-02-12T22:42:37.409Z,5.70
2019-02-12T22:45:08.646Z,5.70
2019-02-12T22:47:37.518Z,5.70
2019-02-12T22:50:06.758Z,5.70
2019-02-12T22:52:35.706Z,5.70
2019-02-12T22:55:04.696Z,5.70
2019-02-12T22:57:33.624Z,5.70
2019-02-12T23:00:02.666Z,5.70
2019-02-12T23:02:31.526Z,5.70
2019-02-12T23:05:00.498Z,5.70
2019-02-12T23:07:29.398Z,5.70
2019-02-12T23:09:58.425Z,5.70
2019-02-12T23:12:27.314Z,5.80
2019-02-12T23:14:56.213Z,5.80
2019-02-12T23:17:25.051Z,5.80
2019-02-12T23:19:53.959Z,5.80
2019-02-12T23:22:22.902Z,5.80
2019-02-12T23:24:51.805Z,5.80
2019-02-12T23:27:20.750Z,5.80
2019-02-12T23:29:49.675Z,5.80
2019-02-12T23:32:18.519Z,5.80
2019-02-12T23:34:47.431Z,5.80
2019-02-12T23:37:17.129Z,5.80
2019-02-12T23:39:46.172Z,5.80
2019-02-12T23:42:15.157Z,5.80
2019-02-12T23:44:44.042Z,5.90
2019-02-12T23:47:12.941Z,5.90
2019-02-12T23:49:41.764Z,5.90
2019-02-12T23:52:10.641Z,5.90
2019-02-12T23:54:39.463Z,5.90
2019-02-12T23:57:08.472Z,5.90
2019-02-12T23:59:37.394Z,5.90
